Time;durP1;ratioP1;P1;durP2;ratioP2;P2;SDS_P1;SDS_P2;PMS_P1;PMS_P2;Temp;Humidity;BMP_temperature;BMP_pressure;BME280_temperature;BME280_humidity;BME280_pressure;Samples;Min_cycle;Max_cycle;Signal;HPM_P1;HPM_P2
2023/08/06 00:00:06;;;;;;;9.68;4.32;;;16.40;99.90;;;;;;5014819;28;20049;-82
2023/08/06 00:02:31;;;;;;;6.18;4.18;;;16.40;99.90;;;;;;5014858;28;20046;-83
2023/08/06 00:04:57;;;;;;;6.85;4.30;;;16.40;99.90;;;;;;5014649;28;20412;-82
2023/08/06 00:07:23;;;;;;;5.85;4.32;;;16.40;99.90;;;;;;5014619;28;20128;-82
2023/08/06 00:09:48;;;;;;;8.15;4.00;;;16.40;99.90;;;;;;5014038;28;20404;-82
2023/08/06 00:12:14;;;;;;;7.75;4.43;;;16.30;99.90;;;;;;5014692;28;20050;-82
2023/08/06 00:14:39;;;;;;;6.30;5.07;;;16.30;99.90;;;;;;5014609;28;20042;-82
2023/08/06 00:17:05;;;;;;;7.70;4.05;;;16.30;99.90;;;;;;5014613;28;20408;-82
2023/08/06 00:19:32;;;;;;;6.93;4.85;;;16.30;99.90;;;;;;5014479;28;20136;-82
2023/08/06 00:21:58;;;;;;;6.85;4.80;;;16.30;99.90;;;;;;5014388;28;20038;-83
2023/08/06 00:24:23;;;;;;;6.93;4.68;;;16.30;99.90;;;;;;5013978;28;20092;-82
2023/08/06 00:26:49;;;;;;;6.45;4.72;;;16.30;99.90;;;;;;5014205;28;20050;-83
2023/08/06 00:29:14;;;;;;;6.50;4.90;;;16.30;99.90;;;;;;5014370;28;20133;-82
2023/08/06 00:31:40;;;;;;;7.57;4.50;;;16.30;99.90;;;;;;5014370;28;20056;-82
2023/08/06 00:34:06;;;;;;;9.05;5.93;;;16.30;99.90;;;;;;5014350;28;20463;-82
2023/08/06 00:36:31;;;;;;;7.47;5.28;;;16.20;99.90;;;;;;5013179;28;20553;-83
2023/08/06 00:38:57;;;;;;;5.80;4.70;;;16.20;99.90;;;;;;5013827;28;20045;-82
2023/08/06 00:41:23;;;;;;;8.15;5.13;;;16.20;99.90;;;;;;5013708;28;20058;-83
2023/08/06 00:43:48;;;;;;;6.68;5.30;;;16.20;99.90;;;;;;5014146;28;20484;-83
2023/08/06 00:46:14;;;;;;;6.63;4.93;;;16.20;99.90;;;;;;5013935;28;20392;-83
2023/08/06 00:48:41;;;;;;;6.53;5.07;;;16.20;99.90;;;;;;5011976;28;20041;-83
2023/08/06 00:51:09;;;;;;;6.57;5.22;;;16.20;99.90;;;;;;5014010;28;20046;-82
2023/08/06 00:53:35;;;;;;;8.32;5.30;;;16.20;99.90;;;;;;5013384;28;20057;-82
2023/08/06 00:56:02;;;;;;;7.80;5.35;;;16.10;99.90;;;;;;5014036;28;20053;-83
2023/08/06 00:58:27;;;;;;;9.70;5.47;;;16.10;99.90;;;;;;5013925;28;20049;-82
2023/08/06 01:00:53;;;;;;;7.30;4.82;;;16.10;99.90;;;;;;5013928;28;20049;-82
2023/08/06 01:03:19;;;;;;;8.02;5.90;;;16.10;99.90;;;;;;5013712;28;20474;-82
2023/08/06 01:05:44;;;;;;;7.97;4.90;;;16.10;99.90;;;;;;5013577;28;20428;-83
2023/08/06 01:08:28;;;;;;;7.45;5.30;;;16.10;99.90;;;;;;5013200;28;20451;-82
2023/08/06 01:10:59;;;;;;;6.72;4.70;;;16.10;99.90;;;;;;5013379;28;20385;-82
2023/08/06 01:13:49;;;;;;;8.05;4.75;;;16.10;99.90;;;;;;5012178;28;20533;-83
2023/08/06 01:16:20;;;;;;;8.48;5.38;;;16.00;99.90;;;;;;5013433;28;20504;-82
2023/08/06 01:18:49;;;;;;;7.50;4.95;;;16.00;99.90;;;;;;5012400;28;20053;-83
2023/08/06 01:21:15;;;;;;;8.15;5.43;;;16.00;99.90;;;;;;5013205;28;20049;-83
2023/08/06 01:23:42;;;;;;;7.60;5.60;;;16.00;99.90;;;;;;5013246;28;20607;-83
2023/08/06 01:26:31;;;;;;;8.05;4.90;;;16.00;99.90;;;;;;5013426;28;20046;-83
2023/08/06 01:29:15;;;;;;;7.28;5.63;;;16.00;99.90;;;;;;5013356;28;20574;-83
2023/08/06 01:31:43;;;;;;;8.38;5.97;;;16.00;99.90;;;;;;5013504;28;20455;-83
2023/08/06 01:34:17;;;;;;;7.25;5.28;;;16.00;99.90;;;;;;5012888;28;20050;-83
2023/08/06 01:36:44;;;;;;;7.45;5.10;;;16.00;99.90;;;;;;5013254;28;20050;-83
2023/08/06 01:39:10;;;;;;;6.25;4.90;;;16.00;99.90;;;;;;5012239;28;20042;-83
2023/08/06 01:41:36;;;;;;;11.73;5.30;;;16.00;99.90;;;;;;5012655;28;20058;-82
2023/08/06 01:44:01;;;;;;;7.47;5.40;;;16.00;99.90;;;;;;5013304;28;20049;-83
2023/08/06 01:46:27;;;;;;;7.55;5.30;;;16.00;99.90;;;;;;5012011;28;20037;-83
2023/08/06 01:48:52;;;;;;;8.13;5.70;;;16.00;99.90;;;;;;5013196;28;20103;-83
2023/08/06 01:51:18;;;;;;;7.43;5.07;;;16.00;99.90;;;;;;5012926;28;20096;-83
2023/08/06 01:53:44;;;;;;;6.18;4.88;;;16.00;99.90;;;;;;5012807;28;20049;-83
2023/08/06 01:56:09;;;;;;;8.68;5.50;;;16.00;99.90;;;;;;5012972;28;20077;-83
2023/08/06 01:58:35;;;;;;;6.93;5.13;;;15.90;99.90;;;;;;5013233;28;20132;-83
2023/08/06 02:01:01;;;;;;;6.28;5.13;;;15.90;99.90;;;;;;5016243;28;20056;-83
2023/08/06 02:03:27;;;;;;;7.93;4.40;;;15.90;99.90;;;;;;5016980;28;20508;-83
2023/08/06 02:05:53;;;;;;;7.15;4.57;;;15.90;99.90;;;;;;5016930;28;20125;-83
2023/08/06 02:08:19;;;;;;;7.30;4.80;;;15.90;99.90;;;;;;5015410;28;20081;-82
2023/08/06 02:10:45;;;;;;;7.80;5.30;;;16.00;99.90;;;;;;5016740;28;20042;-83
2023/08/06 02:13:10;;;;;;;8.48;5.10;;;15.90;99.90;;;;;;5016449;28;20050;-82
2023/08/06 02:15:42;;;;;;;7.65;5.13;;;15.90;99.90;;;;;;5016521;28;20045;-83
2023/08/06 02:18:08;;;;;;;8.55;4.90;;;15.90;99.90;;;;;;5016915;28;20112;-83
2023/08/06 02:20:33;;;;;;;5.95;4.45;;;15.90;99.90;;;;;;5016602;28;20044;-83
2023/08/06 02:22:59;;;;;;;8.23;4.60;;;15.90;99.90;;;;;;5016671;28;20053;-82
2023/08/06 02:25:24;;;;;;;6.10;4.32;;;15.80;99.90;;;;;;5016399;28;20471;-82
2023/08/06 02:27:50;;;;;;;8.38;4.72;;;15.80;99.90;;;;;;5016412;28;20038;-82
2023/08/06 02:30:15;;;;;;;7.20;4.80;;;15.80;99.90;;;;;;5016270;28;20100;-83
2023/08/06 02:32:41;;;;;;;8.10;4.93;;;15.80;99.90;;;;;;5015327;28;20407;-81
2023/08/06 02:35:07;;;;;;;6.10;4.57;;;15.80;99.90;;;;;;5015891;28;20472;-82
2023/08/06 02:37:36;;;;;;;6.43;4.95;;;15.80;99.90;;;;;;5012689;28;20038;-82
2023/08/06 02:40:02;;;;;;;5.82;4.53;;;15.80;99.90;;;;;;5009369;28;20052;-82
2023/08/06 02:42:27;;;;;;;6.70;4.82;;;15.80;99.90;;;;;;5012991;28;20417;-82
2023/08/06 02:44:55;;;;;;;6.63;4.07;;;15.80;99.90;;;;;;5014686;28;20038;-81
2023/08/06 02:47:20;;;;;;;5.82;4.10;;;15.70;99.90;;;;;;5015449;28;20432;-82
2023/08/06 02:49:46;;;;;;;6.40;4.57;;;15.80;99.90;;;;;;5014192;28;20126;-82
2023/08/06 02:52:12;;;;;;;6.57;4.72;;;15.80;99.90;;;;;;5023993;28;20089;-82
2023/08/06 02:54:38;;;;;;;7.07;4.78;;;15.80;99.90;;;;;;5016038;28;20085;-83
2023/08/06 02:57:05;;;;;;;6.38;4.70;;;15.70;99.90;;;;;;5015482;28;20038;-82
2023/08/06 02:59:31;;;;;;;9.60;4.57;;;15.70;99.90;;;;;;5011155;28;20400;-82
2023/08/06 03:01:56;;;;;;;7.43;4.50;;;15.70;99.90;;;;;;5015775;28;20053;-83
2023/08/06 03:04:22;;;;;;;5.90;4.20;;;15.70;99.90;;;;;;5015337;28;20042;-82
2023/08/06 03:06:50;;;;;;;7.60;4.70;;;15.70;99.90;;;;;;5014828;28;20041;-83
2023/08/06 03:09:16;;;;;;;7.35;4.40;;;15.70;99.90;;;;;;5021801;28;20088;-82
2023/08/06 03:11:42;;;;;;;5.78;4.45;;;15.70;99.90;;;;;;5015319;28;20073;-83
2023/08/06 03:14:07;;;;;;;7.18;4.78;;;15.70;99.90;;;;;;5015488;28;20483;-82
2023/08/06 03:16:33;;;;;;;6.35;4.68;;;15.70;99.90;;;;;;4997278;28;20050;-82
2023/08/06 03:18:58;;;;;;;7.57;4.53;;;15.70;99.90;;;;;;5015397;28;20435;-83
2023/08/06 03:21:24;;;;;;;5.63;4.22;;;15.70;99.90;;;;;;5015090;28;20488;-82
2023/08/06 03:23:50;;;;;;;6.88;4.57;;;15.60;99.90;;;;;;5014947;28;20047;-82
2023/08/06 03:26:15;;;;;;;6.60;4.53;;;15.60;99.90;;;;;;5015476;28;20081;-83
2023/08/06 03:28:41;;;;;;;7.95;4.30;;;15.60;99.90;;;;;;5015275;28;20049;-82
2023/08/06 03:31:07;;;;;;;5.75;4.45;;;15.60;99.90;;;;;;5014584;28;20046;-83
2023/08/06 03:33:32;;;;;;;6.88;4.95;;;15.60;99.90;;;;;;5014876;28;20050;-82
2023/08/06 03:35:58;;;;;;;6.32;4.43;;;15.60;99.90;;;;;;5014981;28;20052;-82
2023/08/06 03:38:24;;;;;;;7.85;5.10;;;15.60;99.90;;;;;;5014275;28;20046;-82
2023/08/06 03:40:49;;;;;;;7.07;4.70;;;15.60;99.90;;;;;;5014614;28;20042;-82
2023/08/06 03:43:15;;;;;;;5.85;4.15;;;15.60;99.90;;;;;;5014602;28;20045;-82
2023/08/06 03:45:41;;;;;;;6.43;4.72;;;15.60;99.90;;;;;;5014862;28;20054;-82
2023/08/06 03:48:08;;;;;;;6.65;4.60;;;15.50;99.90;;;;;;5014510;28;20053;-83
2023/08/06 03:50:33;;;;;;;5.85;4.10;;;15.50;99.90;;;;;;5013705;28;20038;-82
2023/08/06 03:52:59;;;;;;;6.68;4.30;;;15.50;99.90;;;;;;5014319;28;20057;-82
2023/08/06 03:55:25;;;;;;;7.15;5.15;;;15.50;99.90;;;;;;4994182;28;20034;-83
2023/08/06 03:57:50;;;;;;;6.88;5.03;;;15.50;99.90;;;;;;5002290;28;20247;-82
2023/08/06 04:00:16;;;;;;;6.03;4.45;;;15.50;99.90;;;;;;5013831;28;20053;-82
2023/08/06 04:02:42;;;;;;;6.28;4.95;;;15.50;99.90;;;;;;4996922;28;20042;-82
2023/08/06 04:05:08;;;;;;;7.75;4.60;;;15.50;99.90;;;;;;5014295;28;20045;-82
2023/08/06 04:07:34;;;;;;;7.57;4.68;;;15.50;99.90;;;;;;5013112;28;20388;-82
2023/08/06 04:10:03;;;;;;;6.65;4.18;;;15.50;99.90;;;;;;5013934;28;20037;-82
2023/08/06 04:12:29;;;;;;;6.72;4.68;;;15.40;99.90;;;;;;5013318;28;20058;-83
2023/08/06 04:14:57;;;;;;;5.68;4.45;;;15.40;99.90;;;;;;5014318;28;20054;-82
2023/08/06 04:17:23;;;;;;;7.82;4.57;;;15.40;99.90;;;;;;5014069;28;20068;-82
2023/08/06 04:19:54;;;;;;;5.50;4.18;;;15.40;99.90;;;;;;5014077;28;20142;-82
2023/08/06 04:22:21;;;;;;;6.95;4.63;;;15.40;99.90;;;;;;5013469;28;20050;-83
2023/08/06 04:24:47;;;;;;;6.00;4.28;;;15.40;99.90;;;;;;5013769;28;20049;-83
2023/08/06 04:27:14;;;;;;;7.03;4.40;;;15.40;99.90;;;;;;5014257;28;20042;-82
2023/08/06 04:29:39;;;;;;;6.43;4.50;;;15.40;99.90;;;;;;5013851;28;20046;-82
2023/08/06 04:32:07;;;;;;;7.60;4.80;;;15.40;99.90;;;;;;5013946;28;20045;-82
2023/08/06 04:34:33;;;;;;;5.80;4.28;;;15.40;99.90;;;;;;5013631;28;20112;-82
2023/08/06 04:36:59;;;;;;;7.63;4.63;;;15.40;99.90;;;;;;5013969;28;20480;-82
2023/08/06 04:39:25;;;;;;;6.40;4.43;;;15.40;99.90;;;;;;5014264;28;20042;-83
2023/08/06 04:41:51;;;;;;;6.45;4.05;;;15.40;99.90;;;;;;5013795;28;20060;-82
2023/08/06 04:44:16;;;;;;;6.97;4.90;;;15.40;99.90;;;;;;5013487;28;20484;-81
2023/08/06 04:46:42;;;;;;;5.53;3.85;;;15.40;99.90;;;;;;5013733;28;20408;-83
2023/08/06 04:49:08;;;;;;;5.65;4.00;;;15.40;99.90;;;;;;5011867;28;20038;-82
2023/08/06 04:51:33;;;;;;;6.22;4.00;;;15.40;99.90;;;;;;5013384;28;20049;-82
2023/08/06 04:53:59;;;;;;;6.07;4.10;;;15.40;99.90;;;;;;5013588;28;20128;-83
2023/08/06 04:56:25;;;;;;;6.80;4.57;;;15.40;99.90;;;;;;5012314;28;20046;-83
2023/08/06 04:58:51;;;;;;;5.78;4.13;;;15.40;99.90;;;;;;5013961;28;20049;-82
2023/08/06 05:01:16;;;;;;;6.80;4.28;;;15.40;99.90;;;;;;5013293;28;20041;-82
2023/08/06 05:03:42;;;;;;;7.00;4.65;;;15.40;99.90;;;;;;5013768;28;20403;-82
2023/08/06 05:06:08;;;;;;;5.57;3.80;;;15.40;99.90;;;;;;5012738;28;20049;-82
2023/08/06 05:08:33;;;;;;;5.90;3.95;;;15.40;99.90;;;;;;5010650;28;20045;-83
2023/08/06 05:10:59;;;;;;;5.82;4.25;;;15.40;99.90;;;;;;4994407;28;20493;-82
2023/08/06 05:13:25;;;;;;;5.80;4.15;;;15.40;99.90;;;;;;5013789;28;20041;-82
2023/08/06 05:15:53;;;;;;;6.47;4.35;;;15.40;99.90;;;;;;5012948;28;20038;-82
2023/08/06 05:18:18;;;;;;;6.22;5.10;;;15.40;99.90;;;;;;5013194;28;20440;-82
2023/08/06 05:20:44;;;;;;;6.90;4.93;;;15.40;99.90;;;;;;5013553;28;20049;-82
2023/08/06 05:23:10;;;;;;;7.25;4.75;;;15.40;99.90;;;;;;5013330;28;20080;-82
2023/08/06 05:25:35;;;;;;;6.50;4.30;;;15.40;99.90;;;;;;5012141;28;20042;-82
2023/08/06 05:28:02;;;;;;;7.07;5.60;;;15.50;99.90;;;;;;5012703;28;20111;-83
2023/08/06 05:30:28;;;;;;;5.80;4.47;;;15.40;99.90;;;;;;5013503;28;20045;-83
2023/08/06 05:32:53;;;;;;;6.20;4.45;;;15.50;99.90;;;;;;5012932;28;20407;-83
2023/08/06 05:35:19;;;;;;;6.32;4.63;;;15.50;99.90;;;;;;5013304;28;20042;-82
2023/08/06 05:37:45;;;;;;;5.75;4.35;;;15.50;99.90;;;;;;5015793;28;20046;-82
2023/08/06 05:40:11;;;;;;;5.97;4.00;;;15.50;99.90;;;;;;5012120;28;20125;-83
2023/08/06 05:42:36;;;;;;;6.53;4.35;;;15.50;99.90;;;;;;5017921;28;20408;-82
2023/08/06 05:45:02;;;;;;;6.88;4.60;;;15.50;99.90;;;;;;5013495;28;20046;-82
2023/08/06 05:47:27;;;;;;;6.72;4.80;;;15.50;99.90;;;;;;5011956;28;20046;-83
2023/08/06 05:49:53;;;;;;;5.57;4.57;;;15.60;99.90;;;;;;5011789;28;20072;-82
2023/08/06 05:52:19;;;;;;;7.05;4.60;;;15.60;99.90;;;;;;5012732;28;20117;-83
2023/08/06 05:54:44;;;;;;;6.07;4.53;;;15.60;99.90;;;;;;5012403;28;20399;-83
2023/08/06 05:57:10;;;;;;;6.45;4.43;;;15.60;99.90;;;;;;4997015;28;20053;-83
2023/08/06 05:59:35;;;;;;;6.00;4.53;;;15.70;99.90;;;;;;5009974;28;20407;-83
2023/08/06 06:02:01;;;;;;;6.85;4.65;;;15.70;99.90;;;;;;5011271;28;20045;-83
2023/08/06 06:04:27;;;;;;;6.07;4.30;;;15.70;99.90;;;;;;5011970;28;20551;-81
2023/08/06 06:06:56;;;;;;;8.32;5.50;;;15.70;99.90;;;;;;5012449;28;20060;-82
2023/08/06 06:09:25;;;;;;;7.05;4.55;;;15.70;99.90;;;;;;5012728;28;20056;-82
2023/08/06 06:11:51;;;;;;;7.32;5.95;;;15.70;99.90;;;;;;5013083;28;20058;-83
2023/08/06 06:14:19;;;;;;;6.70;4.68;;;15.70;99.90;;;;;;5012841;28;20447;-83
2023/08/06 06:16:45;;;;;;;5.93;4.53;;;15.70;99.90;;;;;;5013105;28;20054;-83
2023/08/06 06:19:12;;;;;;;6.45;4.63;;;15.80;99.90;;;;;;5013336;28;20377;-83
2023/08/06 06:21:38;;;;;;;7.13;4.57;;;15.80;99.90;;;;;;5012930;28;20047;-83
2023/08/06 06:24:05;;;;;;;6.82;4.85;;;15.80;99.90;;;;;;5012959;28;20091;-83
2023/08/06 06:26:32;;;;;;;7.07;5.60;;;15.80;99.90;;;;;;5012961;28;20042;-83
2023/08/06 06:28:59;;;;;;;6.35;4.70;;;15.80;99.90;;;;;;5012707;28;20046;-83
2023/08/06 06:31:25;;;;;;;7.45;4.53;;;15.80;99.90;;;;;;5012103;28;20050;-83
2023/08/06 06:33:53;;;;;;;6.10;4.63;;;15.80;99.90;;;;;;5012184;28;20041;-82
2023/08/06 06:36:22;;;;;;;5.38;4.18;;;15.90;99.90;;;;;;5012775;28;20046;-82
2023/08/06 06:38:49;;;;;;;6.38;4.80;;;15.90;99.90;;;;;;5012967;28;20440;-83
2023/08/06 06:41:14;;;;;;;6.88;4.95;;;15.90;99.90;;;;;;5012186;28;20062;-83
2023/08/06 06:43:41;;;;;;;10.18;6.32;;;16.00;99.90;;;;;;5012407;28;20124;-83
2023/08/06 06:46:10;;;;;;;6.55;5.00;;;16.00;99.90;;;;;;5014072;28;20500;-83
2023/08/06 06:48:36;;;;;;;7.43;5.03;;;16.00;99.90;;;;;;5016295;28;20045;-83
2023/08/06 06:51:02;;;;;;;6.13;4.72;;;16.00;99.90;;;;;;5016097;28;20052;-83
2023/08/06 06:53:28;;;;;;;7.18;5.15;;;16.00;99.90;;;;;;5016272;28;20046;-82
2023/08/06 06:56:02;;;;;;;6.35;4.80;;;16.10;99.90;;;;;;5016767;28;20063;-83
2023/08/06 06:58:31;;;;;;;7.15;5.03;;;16.10;99.90;;;;;;5014046;28;20072;-82
2023/08/06 07:00:57;;;;;;;7.18;5.65;;;16.10;99.90;;;;;;5015708;28;20407;-82
2023/08/06 07:03:23;;;;;;;8.73;5.20;;;16.10;99.90;;;;;;5016333;28;20041;-83
2023/08/06 07:05:50;;;;;;;6.60;4.68;;;16.20;99.90;;;;;;5015814;28;20053;-83
2023/08/06 07:08:16;;;;;;;6.65;5.43;;;16.20;99.90;;;;;;5015529;28;20049;-81
2023/08/06 07:10:42;;;;;;;6.53;4.90;;;16.20;99.90;;;;;;5015259;28;20092;-82
2023/08/06 07:13:08;;;;;;;8.00;5.40;;;16.20;99.90;;;;;;5014041;28;20050;-82
2023/08/06 07:15:34;;;;;;;6.40;5.30;;;16.20;99.90;;;;;;5014518;28;20085;-82
2023/08/06 07:18:01;;;;;;;7.10;5.93;;;16.30;99.90;;;;;;5014973;28;20077;-82
2023/08/06 07:20:31;;;;;;;10.15;6.68;;;16.30;99.90;;;;;;5013851;28;20045;-83
2023/08/06 07:22:57;;;;;;;7.53;6.35;;;16.30;99.90;;;;;;5015331;28;20093;-83
2023/08/06 07:25:22;;;;;;;7.55;5.97;;;16.30;99.90;;;;;;5015048;28;20081;-83
2023/08/06 07:27:48;;;;;;;7.45;5.70;;;16.30;99.90;;;;;;5014674;28;20050;-83
2023/08/06 07:30:14;;;;;;;8.52;6.72;;;16.30;99.90;;;;;;5014454;28;20126;-82
2023/08/06 07:32:39;;;;;;;6.72;5.47;;;16.40;99.90;;;;;;5014049;28;20049;-82
2023/08/06 07:35:05;;;;;;;8.43;6.22;;;16.40;99.90;;;;;;5015425;28;20059;-83
2023/08/06 07:37:31;;;;;;;6.68;5.32;;;16.40;99.90;;;;;;5015524;28;20046;-83
2023/08/06 07:39:57;;;;;;;7.88;5.55;;;16.50;99.90;;;;;;5014459;28;20531;-82
2023/08/06 07:42:22;;;;;;;7.05;5.57;;;16.50;99.90;;;;;;5015473;28;20053;-83
2023/08/06 07:45:01;;;;;;;7.55;5.63;;;16.50;99.90;;;;;;5015134;28;20048;-83
2023/08/06 07:47:27;;;;;;;8.70;5.63;;;16.50;99.90;;;;;;5015136;28;20069;-83
2023/08/06 07:49:53;;;;;;;6.65;5.43;;;16.60;99.90;;;;;;5013956;28;20495;-83
2023/08/06 07:52:18;;;;;;;7.13;5.75;;;16.50;99.90;;;;;;5014681;28;20046;-83
2023/08/06 07:54:44;;;;;;;7.20;5.50;;;16.60;99.90;;;;;;5014951;28;20071;-83
2023/08/06 07:57:10;;;;;;;6.82;5.28;;;16.60;99.90;;;;;;5014279;28;20506;-83
2023/08/06 07:59:35;;;;;;;6.05;5.18;;;16.60;99.90;;;;;;5014833;28;20104;-83
2023/08/06 08:02:01;;;;;;;10.57;6.85;;;16.70;99.90;;;;;;5013620;28;20133;-83
2023/08/06 08:04:26;;;;;;;8.35;6.07;;;16.70;99.90;;;;;;5014321;28;20117;-83
2023/08/06 08:06:52;;;;;;;8.43;6.10;;;16.70;99.90;;;;;;5014626;28;20125;-83
2023/08/06 08:09:18;;;;;;;8.18;5.53;;;16.80;99.90;;;;;;5014807;28;20038;-82
2023/08/06 08:11:44;;;;;;;8.65;6.10;;;16.80;99.90;;;;;;5014534;28;20440;-83
2023/08/06 08:14:10;;;;;;;7.43;5.53;;;16.90;99.90;;;;;;5034764;28;20045;-83
2023/08/06 08:16:38;;;;;;;8.73;5.90;;;16.90;99.90;;;;;;5013573;28;20046;-83
2023/08/06 08:19:06;;;;;;;8.95;5.25;;;16.90;99.90;;;;;;5032010;28;20077;-83
2023/08/06 08:21:31;;;;;;;7.03;5.97;;;17.00;99.90;;;;;;5017251;28;20054;-83
2023/08/06 08:23:59;;;;;;;8.13;6.50;;;17.00;99.90;;;;;;5013866;28;20567;-83
2023/08/06 08:26:27;;;;;;;7.10;5.65;;;17.00;99.90;;;;;;5014057;28;20120;-83
2023/08/06 08:28:53;;;;;;;7.25;5.80;;;17.00;99.90;;;;;;5013649;28;20069;-83
2023/08/06 08:31:18;;;;;;;7.15;4.75;;;17.10;99.90;;;;;;5014253;28;20038;-83
2023/08/06 08:33:44;;;;;;;7.50;5.20;;;17.10;99.90;;;;;;5014253;28;20103;-82
2023/08/06 08:36:10;;;;;;;9.90;6.00;;;17.20;99.90;;;;;;5013808;28;20507;-82
2023/08/06 08:38:36;;;;;;;10.00;5.85;;;17.20;99.90;;;;;;5014642;28;20057;-83
2023/08/06 08:41:01;;;;;;;6.75;4.82;;;17.20;99.90;;;;;;5013299;28;20058;-82
2023/08/06 08:43:27;;;;;;;7.97;5.07;;;17.30;99.90;;;;;;5030398;28;20395;-82
2023/08/06 08:46:00;;;;;;;7.20;4.75;;;17.30;99.90;;;;;;5013568;28;20081;-83
2023/08/06 08:48:26;;;;;;;6.78;5.32;;;17.30;99.90;;;;;;5013086;28;20041;-83
2023/08/06 08:50:56;;;;;;;7.22;5.38;;;17.30;99.90;;;;;;5014649;28;20088;-83
2023/08/06 08:53:22;;;;;;;7.05;5.15;;;17.40;99.90;;;;;;4999712;28;20061;-83
2023/08/06 08:55:49;;;;;;;8.60;5.32;;;17.40;99.90;;;;;;5013323;28;20038;-83
2023/08/06 08:58:15;;;;;;;7.50;5.40;;;17.50;99.90;;;;;;5013727;28;20045;-82
2023/08/06 09:00:46;;;;;;;7.25;5.43;;;17.50;99.90;;;;;;5011708;28;20093;-83
2023/08/06 09:03:12;;;;;;;6.05;4.90;;;17.50;99.90;;;;;;5014235;28;20038;-83
2023/08/06 09:05:44;;;;;;;9.60;5.78;;;17.60;99.90;;;;;;5003603;28;20500;-83
2023/08/06 09:08:12;;;;;;;9.05;5.10;;;17.60;99.90;;;;;;5013196;28;20112;-82
2023/08/06 09:10:40;;;;;;;7.55;4.95;;;17.70;99.90;;;;;;5012591;28;20149;-82
2023/08/06 09:13:06;;;;;;;5.80;4.35;;;17.70;99.90;;;;;;5012824;28;20125;-83
2023/08/06 09:15:33;;;;;;;9.40;5.10;;;17.70;99.90;;;;;;5013459;28;20065;-82
2023/08/06 09:18:00;;;;;;;7.93;5.20;;;17.70;99.90;;;;;;5012923;28;20050;-82
2023/08/06 09:20:26;;;;;;;7.03;4.90;;;17.80;99.90;;;;;;5013318;28;20049;-83
2023/08/06 09:22:54;;;;;;;6.90;4.30;;;17.80;99.90;;;;;;5013223;28;20053;-83
2023/08/06 09:25:25;;;;;;;7.32;3.97;;;17.90;99.90;;;;;;5013359;28;20077;-83
2023/08/06 09:27:51;;;;;;;6.80;4.60;;;17.90;99.90;;;;;;5012233;28;20064;-83
2023/08/06 09:30:34;;;;;;;6.40;3.80;;;18.00;99.90;;;;;;5013256;28;20050;-83
2023/08/06 09:33:00;;;;;;;5.30;3.75;;;18.00;99.90;;;;;;5013413;28;20056;-83
2023/08/06 09:35:30;;;;;;;4.93;3.70;;;18.10;99.90;;;;;;5013755;28;20081;-82
2023/08/06 09:37:56;;;;;;;6.40;3.90;;;18.10;99.90;;;;;;5013546;28;20046;-83
2023/08/06 09:40:28;;;;;;;4.55;3.50;;;18.20;99.90;;;;;;5012743;28;20100;-83
2023/08/06 09:42:55;;;;;;;6.63;3.40;;;18.20;99.90;;;;;;5012348;28;20081;-82
2023/08/06 09:45:22;;;;;;;4.30;3.10;;;18.30;99.90;;;;;;5011350;28;20088;-84
2023/08/06 09:47:49;;;;;;;6.75;3.40;;;18.30;99.90;;;;;;5013299;28;20050;-83
2023/08/06 09:50:18;;;;;;;5.00;3.15;;;18.40;99.90;;;;;;5007472;28;20056;-84
2023/08/06 09:52:44;;;;;;;6.53;3.33;;;18.40;99.90;;;;;;5004441;28;20046;-84
2023/08/06 09:55:13;;;;;;;5.72;3.00;;;18.50;99.90;;;;;;5012832;28;20037;-84
2023/08/06 09:57:41;;;;;;;4.25;2.63;;;18.50;99.90;;;;;;5011867;28;20507;-83
2023/08/06 10:00:11;;;;;;;5.00;3.30;;;18.60;99.90;;;;;;5013589;28;20042;-83
2023/08/06 10:02:41;;;;;;;5.40;2.90;;;18.60;99.90;;;;;;5005712;28;20125;-83
2023/08/06 10:05:09;;;;;;;4.78;2.60;;;18.70;99.90;;;;;;5001370;28;20100;-80
2023/08/06 10:07:36;;;;;;;5.95;2.50;;;18.70;99.90;;;;;;5006587;28;20042;-84
2023/08/06 10:10:03;;;;;;;5.22;2.45;;;18.80;99.90;;;;;;4997045;28;20116;-84
2023/08/06 10:12:39;;;;;;;6.30;2.53;;;18.90;99.70;;;;;;5009994;28;20049;-83
2023/08/06 10:15:14;;;;;;;4.82;2.80;;;18.90;99.50;;;;;;5011823;28;20495;-83
2023/08/06 10:17:41;;;;;;;4.88;2.50;;;19.00;99.50;;;;;;5002931;28;20057;-83
2023/08/06 10:20:08;;;;;;;6.85;2.28;;;19.00;99.60;;;;;;4997945;28;20054;-83
2023/08/06 10:22:34;;;;;;;4.88;2.42;;;19.10;99.50;;;;;;5007078;28;20069;-82
2023/08/06 10:25:04;;;;;;;4.60;2.28;;;19.20;99.40;;;;;;5014727;28;20562;-83
2023/08/06 10:27:52;;;;;;;4.00;2.13;;;19.30;99.20;;;;;;5008121;28;20085;-83
2023/08/06 10:30:22;;;;;;;3.67;2.08;;;19.30;98.80;;;;;;5008326;28;20081;-83
2023/08/06 10:32:50;;;;;;;3.75;2.30;;;19.40;99.00;;;;;;5014235;28;20054;-83
2023/08/06 10:35:49;;;;;;;4.03;1.83;;;19.40;99.10;;;;;;5012476;28;20046;-83
2023/08/06 10:38:15;;;;;;;4.13;2.35;;;19.40;98.30;;;;;;5006542;28;20099;-84
2023/08/06 10:40:59;;;;;;;4.70;2.22;;;19.60;98.80;;;;;;5011863;28;20116;-83
2023/08/06 10:43:36;;;;;;;4.15;1.95;;;19.60;98.80;;;;;;5013916;28;20054;-84
2023/08/06 10:46:06;;;;;;;3.60;1.90;;;19.60;98.80;;;;;;5010763;28;20038;-84
2023/08/06 10:48:41;;;;;;;4.60;1.80;;;19.70;98.70;;;;;;5013366;28;20138;-84
2023/08/06 10:51:14;;;;;;;3.25;1.70;;;19.70;97.90;;;;;;5009372;28;20050;-84
2023/08/06 10:53:53;;;;;;;3.45;2.00;;;19.80;97.70;;;;;;5012734;28;20042;-84
2023/08/06 10:56:22;;;;;;;4.28;1.73;;;19.80;98.20;;;;;;5003049;28;20038;-84
2023/08/06 10:58:48;;;;;;;3.60;1.98;;;19.80;97.70;;;;;;5003499;28;20046;-84
2023/08/06 11:01:15;;;;;;;4.03;1.75;;;19.90;98.40;;;;;;5008354;28;20092;-84
2023/08/06 11:03:42;;;;;;;3.65;1.92;;;19.90;98.00;;;;;;5001244;28;20046;-85
2023/08/06 11:06:09;;;;;;;4.28;1.80;;;20.00;98.10;;;;;;5011783;28;20490;-84
2023/08/06 11:08:36;;;;;;;4.03;1.88;;;20.00;98.00;;;;;;4998124;28;20054;-84
2023/08/06 11:11:15;;;;;;;4.07;1.73;;;20.00;97.80;;;;;;4999158;28;20049;-84
2023/08/06 11:13:46;;;;;;;4.45;2.05;;;20.10;97.50;;;;;;5014754;28;20050;-84
2023/08/06 11:16:13;;;;;;;4.10;1.95;;;20.10;97.40;;;;;;4995059;28;20389;-85
2023/08/06 11:18:41;;;;;;;4.53;1.90;;;20.20;97.70;;;;;;5008106;28;20041;-84
2023/08/06 11:21:07;;;;;;;4.82;1.70;;;20.20;97.10;;;;;;5015871;28;20442;-84
2023/08/06 11:23:34;;;;;;;3.28;1.60;;;20.10;96.90;;;;;;5012058;28;20042;-83
2023/08/06 11:26:00;;;;;;;4.10;1.85;;;20.20;96.80;;;;;;5024076;28;20038;-83
2023/08/06 11:28:26;;;;;;;3.13;1.75;;;20.20;97.00;;;;;;5014086;28;20052;-83
2023/08/06 11:30:53;;;;;;;3.17;1.88;;;20.30;97.60;;;;;;5015521;28;20058;-84
2023/08/06 11:33:25;;;;;;;3.30;1.80;;;20.30;97.90;;;;;;5014946;28;20042;-84
2023/08/06 11:35:51;;;;;;;5.85;2.00;;;20.30;97.60;;;;;;5004527;28;20042;-84
2023/08/06 11:38:18;;;;;;;3.15;1.70;;;20.30;97.80;;;;;;4998535;28;20093;-84
2023/08/06 11:40:50;;;;;;;4.07;1.80;;;20.30;98.10;;;;;;5010869;28;20060;-83
2023/08/06 11:43:22;;;;;;;3.10;1.70;;;20.40;97.90;;;;;;4996784;28;20178;-84
2023/08/06 11:45:53;;;;;;;3.60;1.58;;;20.40;97.50;;;;;;4999604;28;20038;-84
2023/08/06 11:48:19;;;;;;;4.22;1.90;;;20.40;97.10;;;;;;5005621;28;20045;-84
2023/08/06 11:50:45;;;;;;;3.88;1.90;;;20.40;97.50;;;;;;4998421;28;20424;-84
2023/08/06 11:53:15;;;;;;;3.75;1.73;;;20.50;97.50;;;;;;4995732;28;20054;-84
2023/08/06 11:55:41;;;;;;;4.03;1.73;;;20.50;97.70;;;;;;5010207;28;20045;-84
2023/08/06 11:58:06;;;;;;;4.82;1.77;;;20.40;97.00;;;;;;5002847;28;20042;-84
2023/08/06 12:00:32;;;;;;;4.38;1.80;;;20.50;96.90;;;;;;5014258;28;20411;-84
2023/08/06 12:02:58;;;;;;;4.30;1.63;;;20.60;96.70;;;;;;5007712;28;20045;-84
2023/08/06 12:05:31;;;;;;;3.70;1.40;;;20.60;95.90;;;;;;5013366;28;20069;-84
2023/08/06 12:07:58;;;;;;;3.60;1.70;;;20.60;95.70;;;;;;5015160;28;20049;-83
2023/08/06 12:10:29;;;;;;;3.50;1.60;;;20.70;95.60;;;;;;5014059;28;20064;-84
2023/08/06 12:12:55;;;;;;;4.10;1.67;;;20.70;95.80;;;;;;5014418;28;20046;-84
2023/08/06 12:15:21;;;;;;;3.40;1.67;;;20.80;95.20;;;;;;5014574;28;20510;-84
2023/08/06 12:17:47;;;;;;;6.40;1.80;;;20.80;95.60;;;;;;5014927;28;20073;-84
2023/08/06 12:20:13;;;;;;;3.75;1.70;;;20.90;94.90;;;;;;5014817;28;20464;-84
2023/08/06 12:22:39;;;;;;;5.25;1.90;;;20.90;95.10;;;;;;5014124;28;20049;-84
2023/08/06 12:25:14;;;;;;;4.72;1.75;;;20.90;94.20;;;;;;5013643;28;20148;-83
2023/08/06 12:27:44;;;;;;;3.47;1.58;;;20.90;94.60;;;;;;5013616;28;20046;-83
2023/08/06 12:30:11;;;;;;;3.70;1.63;;;20.90;93.70;;;;;;5014735;28;20511;-84
2023/08/06 12:32:38;;;;;;;4.63;1.40;;;20.90;93.70;;;;;;5010700;28;20046;-84
2023/08/06 12:35:04;;;;;;;4.28;1.85;;;20.90;94.00;;;;;;5000485;28;20412;-83
2023/08/06 12:37:30;;;;;;;3.97;1.75;;;20.90;93.70;;;;;;5009823;28;20050;-83
2023/08/06 12:39:56;;;;;;;3.63;1.70;;;20.90;93.50;;;;;;5005412;28;20040;-83
2023/08/06 12:42:24;;;;;;;3.45;1.70;;;20.90;95.20;;;;;;4994633;28;20066;-83
2023/08/06 12:44:50;;;;;;;3.47;1.80;;;21.00;95.50;;;;;;5010245;28;20056;-84